createdAt,value
2023-02-14T00:01:08.288Z,102.20
2023-02-14T00:03:35.455Z,105.53
2023-02-14T00:06:07.827Z,104.32
2023-02-14T00:08:35.120Z,105.30
2023-02-14T00:11:03.297Z,110.13
2023-02-14T00:13:30.550Z,104.40
2023-02-14T00:15:57.804Z,102.93
2023-02-14T00:18:45.020Z,99.70
2023-02-14T00:21:12.444Z,107.03
2023-02-14T00:23:39.644Z,102.60
2023-02-14T00:26:13.856Z,107.73
2023-02-14T00:28:42.832Z,107.47
2023-02-14T00:31:10.533Z,102.28
2023-02-14T00:33:38.012Z,96.63
2023-02-14T00:36:07.081Z,100.88
2023-02-14T00:38:34.772Z,105.22
2023-02-14T00:41:02.315Z,100.30
2023-02-14T00:43:29.694Z,103.28
2023-02-14T00:45:57.757Z,110.77
2023-02-14T00:48:25.073Z,103.82
2023-02-14T00:50:52.274Z,113.10
2023-02-14T00:53:19.556Z,106.20
2023-02-14T00:55:47.063Z,98.43
2023-02-14T00:58:15.542Z,114.40
2023-02-14T01:00:42.756Z,102.23
2023-02-14T01:03:09.972Z,114.93
2023-02-14T01:05:37.183Z,104.22
2023-02-14T01:08:05.200Z,118.75
2023-02-14T01:10:32.580Z,108.55
2023-02-14T01:12:59.957Z,116.47
2023-02-14T01:15:28.851Z,110.63
2023-02-14T01:17:56.381Z,110.50
2023-02-14T01:20:23.681Z,117.60
2023-02-14T01:22:50.855Z,111.27
2023-02-14T01:25:18.663Z,115.75
2023-02-14T01:27:45.854Z,109.55
2023-02-14T01:30:14.731Z,110.10
2023-02-14T01:32:42.357Z,107.25
2023-02-14T01:35:10.651Z,109.70
2023-02-14T01:37:37.922Z,106.93
2023-02-14T01:40:08.284Z,108.90
2023-02-14T01:42:36.450Z,108.78
2023-02-14T01:45:10.090Z,112.15
2023-02-14T01:47:43.215Z,112.75
2023-02-14T01:50:19.896Z,117.53
2023-02-14T01:52:52.569Z,115.32
2023-02-14T01:55:27.207Z,116.68
2023-02-14T01:58:19.406Z,110.00
2023-02-14T02:00:59.556Z,110.70
2023-02-14T02:03:44.434Z,113.38
2023-02-14T02:06:17.097Z,112.20
2023-02-14T02:09:10.047Z,108.40
2023-02-14T02:11:37.914Z,107.22
2023-02-14T02:14:05.268Z,107.65
2023-02-14T02:16:36.663Z,104.60
2023-02-14T02:19:15.954Z,100.13
2023-02-14T02:22:10.599Z,110.13
2023-02-14T02:24:57.758Z,112.23
2023-02-14T02:27:38.430Z,117.70
2023-02-14T02:30:30.531Z,116.53
2023-02-14T02:33:15.394Z,119.20
2023-02-14T02:36:13.086Z,128.70
2023-02-14T02:39:07.079Z,112.57
2023-02-14T02:41:45.872Z,125.57
2023-02-14T02:44:26.743Z,148.13
2023-02-14T02:47:05.856Z,121.33
2023-02-14T02:50:14.399Z,127.07
2023-02-14T02:53:03.981Z,120.47
2023-02-14T02:56:06.256Z,122.00
2023-02-14T02:58:45.216Z,117.00
2023-02-14T03:01:21.775Z,121.93
2023-02-14T03:04:14.763Z,142.85
2023-02-14T03:06:41.988Z,143.97
2023-02-14T03:09:19.572Z,122.50
2023-02-14T03:12:17.472Z,121.80
2023-02-14T03:14:57.855Z,141.77
2023-02-14T03:17:55.234Z,127.38
2023-02-14T03:20:41.032Z,121.32
2023-02-14T03:23:23.277Z,119.72
2023-02-14T03:26:12.466Z,136.50
2023-02-14T03:29:01.902Z,129.48
2023-02-14T03:31:50.863Z,128.93
2023-02-14T03:34:31.127Z,136.38
2023-02-14T03:37:03.055Z,138.57
2023-02-14T03:39:39.166Z,128.75
2023-02-14T03:42:14.328Z,124.87
2023-02-14T03:44:44.097Z,123.57
2023-02-14T03:47:16.740Z,135.95
2023-02-14T03:49:48.909Z,110.25
2023-02-14T03:52:17.845Z,116.07
2023-02-14T03:54:48.930Z,126.95
2023-02-14T03:57:20.994Z,107.95
2023-02-14T03:59:48.721Z,117.67
2023-02-14T04:02:29.122Z,119.90
2023-02-14T04:04:58.126Z,127.22
2023-02-14T04:07:25.964Z,129.83
2023-02-14T04:09:53.170Z,133.82
2023-02-14T04:12:32.353Z,137.38
2023-02-14T04:15:05.557Z,124.65
2023-02-14T04:17:52.963Z,131.23
2023-02-14T04:20:20.243Z,132.75
2023-02-14T04:22:47.453Z,156.90
2023-02-14T04:25:15.511Z,127.90
2023-02-14T04:27:42.740Z,126.68
2023-02-14T04:30:12.449Z,120.25
2023-02-14T04:32:39.966Z,140.25
2023-02-14T04:35:07.683Z,154.38
2023-02-14T04:37:34.960Z,106.40
2023-02-14T04:40:02.175Z,112.40
2023-02-14T04:42:29.725Z,129.35
2023-02-14T04:44:56.928Z,113.03
2023-02-14T04:47:24.192Z,114.43
2023-02-14T04:49:51.463Z,145.35
2023-02-14T04:52:18.668Z,117.10
2023-02-14T04:54:45.895Z,129.75
2023-02-14T04:57:13.084Z,127.15
2023-02-14T04:59:40.321Z,135.90
2023-02-14T05:02:07.701Z,137.18
2023-02-14T05:04:34.919Z,116.50
2023-02-14T05:07:02.109Z,112.50
2023-02-14T05:09:29.457Z,103.73
2023-02-14T05:11:56.720Z,133.57
2023-02-14T05:14:23.901Z,119.63
2023-02-14T05:16:51.150Z,121.35
2023-02-14T05:19:18.380Z,108.55
2023-02-14T05:21:45.595Z,122.55
2023-02-14T05:24:13.265Z,101.68
2023-02-14T05:26:40.909Z,104.97
2023-02-14T05:29:08.226Z,111.73
2023-02-14T05:31:35.587Z,110.67
2023-02-14T05:34:02.909Z,111.23
2023-02-14T05:36:30.169Z,109.77
2023-02-14T05:38:57.381Z,111.10
2023-02-14T05:41:24.616Z,108.78
2023-02-14T05:43:51.799Z,105.57
2023-02-14T05:46:19.033Z,109.03
2023-02-14T05:48:46.341Z,107.72
2023-02-14T05:51:13.685Z,107.43
2023-02-14T05:53:40.894Z,108.53
2023-02-14T05:56:08.160Z,102.88
2023-02-14T05:58:35.480Z,94.47
2023-02-14T06:01:02.887Z,100.90
2023-02-14T06:03:30.228Z,94.28
2023-02-14T06:05:57.394Z,103.33
2023-02-14T06:08:24.698Z,110.13
2023-02-14T06:10:51.976Z,101.68
2023-02-14T06:13:19.243Z,103.40
2023-02-14T06:15:46.555Z,101.43
2023-02-14T06:18:13.779Z,102.90
2023-02-14T06:20:40.995Z,99.63
2023-02-14T06:23:08.208Z,103.82
2023-02-14T06:25:35.409Z,99.85
2023-02-14T06:28:02.685Z,99.97
2023-02-14T06:30:30.031Z,100.80
2023-02-14T06:32:57.413Z,98.82
2023-02-14T06:35:24.616Z,98.70
2023-02-14T06:37:51.757Z,96.70
2023-02-14T06:40:19.650Z,98.93
2023-02-14T06:42:46.940Z,94.25
2023-02-14T06:45:14.133Z,97.47
2023-02-14T06:47:41.362Z,98.87
2023-02-14T06:50:11.441Z,98.00
2023-02-14T06:52:39.300Z,99.28
2023-02-14T06:55:06.947Z,100.47
2023-02-14T06:57:34.162Z,96.13
2023-02-14T07:00:01.346Z,92.97
2023-02-14T07:02:28.509Z,96.53
2023-02-14T07:04:55.808Z,104.38
2023-02-14T07:07:23.140Z,99.10
2023-02-14T07:09:50.413Z,99.95
2023-02-14T07:12:17.620Z,100.93
2023-02-14T07:14:44.864Z,94.47
2023-02-14T07:17:12.124Z,98.70
2023-02-14T07:19:39.252Z,97.55
2023-02-14T07:22:06.439Z,93.88
2023-02-14T07:24:33.595Z,96.63
2023-02-14T07:27:00.865Z,95.20
2023-02-14T07:29:28.040Z,97.03
2023-02-14T07:31:55.469Z,88.10
2023-02-14T07:34:22.861Z,94.15
2023-02-14T07:36:50.070Z,99.40
2023-02-14T07:39:17.244Z,99.07
2023-02-14T07:41:44.405Z,99.95
2023-02-14T07:44:11.936Z,97.17
2023-02-14T07:46:39.408Z,113.95
2023-02-14T07:49:06.856Z,187.43
2023-02-14T07:51:34.337Z,202.20
2023-02-14T07:54:01.548Z,246.30
2023-02-14T07:56:28.941Z,197.00
2023-02-14T07:58:56.121Z,316.48
2023-02-14T08:01:23.404Z,331.27
2023-02-14T08:03:51.514Z,413.27
2023-02-14T08:06:19.718Z,399.00
2023-02-14T08:08:47.246Z,326.52
2023-02-14T08:11:34.009Z,344.43
2023-02-14T08:14:01.292Z,312.67
2023-02-14T08:16:28.598Z,317.05
2023-02-14T08:18:55.818Z,318.50
2023-02-14T08:21:23.070Z,257.97
2023-02-14T08:23:50.292Z,278.87
2023-02-14T08:26:17.532Z,302.35
2023-02-14T08:28:45.004Z,272.20
2023-02-14T08:31:12.742Z,299.73
2023-02-14T08:33:39.995Z,186.65
2023-02-14T08:36:07.326Z,112.28
2023-02-14T08:38:34.763Z,172.80
2023-02-14T08:41:05.800Z,120.00
2023-02-14T08:43:34.491Z,103.03
2023-02-14T08:46:02.087Z,76.25
2023-02-14T08:48:29.486Z,77.32
2023-02-14T08:50:56.743Z,46.70
2023-02-14T08:53:24.312Z,49.90
2023-02-14T08:55:52.454Z,40.35
2023-02-14T08:58:19.695Z,36.92
2023-02-14T09:00:46.992Z,33.35
2023-02-14T09:03:14.230Z,32.28
2023-02-14T09:05:41.488Z,29.80
2023-02-14T09:08:08.768Z,27.92
2023-02-14T09:10:36.722Z,28.90
2023-02-14T09:13:03.974Z,25.87
2023-02-14T09:15:31.130Z,25.00
2023-02-14T09:17:58.399Z,27.38
2023-02-14T09:20:26.064Z,25.55
2023-02-14T09:22:55.953Z,26.10
2023-02-14T09:25:23.128Z,26.20
2023-02-14T09:27:50.413Z,25.70
2023-02-14T09:30:17.804Z,26.67
2023-02-14T09:32:45.047Z,25.38
2023-02-14T09:35:12.304Z,26.25
2023-02-14T09:37:57.938Z,25.60
2023-02-14T09:40:25.685Z,26.75
2023-02-14T09:43:04.422Z,26.20
2023-02-14T09:45:33.346Z,27.58
2023-02-14T09:48:12.228Z,26.90
2023-02-14T09:50:51.272Z,29.48
2023-02-14T09:53:24.659Z,31.13
2023-02-14T09:56:24.315Z,28.23
2023-02-14T09:58:56.130Z,29.70
2023-02-14T10:01:38.676Z,33.65
2023-02-14T10:04:31.171Z,33.88
2023-02-14T10:07:28.048Z,35.05
2023-02-14T10:10:17.827Z,41.60
2023-02-14T10:12:44.992Z,41.67
2023-02-14T10:15:23.709Z,36.95
2023-02-14T10:18:23.869Z,36.15
2023-02-14T10:21:00.236Z,36.40
2023-02-14T10:23:34.777Z,37.67
2023-02-14T10:26:10.087Z,37.13
2023-02-14T10:28:51.925Z,36.27
2023-02-14T10:31:25.302Z,34.60
2023-02-14T10:34:04.531Z,35.13
2023-02-14T10:36:41.828Z,33.78
2023-02-14T10:39:27.384Z,36.83
2023-02-14T10:42:03.083Z,33.28
2023-02-14T10:44:33.270Z,34.78
2023-02-14T10:47:27.838Z,35.38
2023-02-14T10:49:54.946Z,36.53
2023-02-14T10:52:27.910Z,36.85
2023-02-14T10:55:01.224Z,34.92
2023-02-14T10:57:50.951Z,37.13
2023-02-14T11:00:35.368Z,36.85
2023-02-14T11:03:07.080Z,35.00
2023-02-14T11:05:48.745Z,34.95
2023-02-14T11:08:33.364Z,34.78
2023-02-14T11:11:28.364Z,32.05
2023-02-14T11:13:55.804Z,34.38
2023-02-14T11:16:36.040Z,33.38
2023-02-14T11:19:38.731Z,33.72
2023-02-14T11:22:06.073Z,31.48
2023-02-14T11:24:35.828Z,32.72
2023-02-14T11:27:12.048Z,32.70
2023-02-14T11:29:39.262Z,31.77
2023-02-14T11:32:15.013Z,34.40
2023-02-14T11:34:47.461Z,31.90
2023-02-14T11:37:39.443Z,31.98
2023-02-14T11:40:07.476Z,32.10
2023-02-14T11:42:46.565Z,31.45
2023-02-14T11:45:38.527Z,32.38
2023-02-14T11:48:37.320Z,31.97
2023-02-14T11:51:11.029Z,30.43
2023-02-14T11:53:54.823Z,31.50
2023-02-14T11:56:23.745Z,32.27
2023-02-14T11:58:58.098Z,31.08
2023-02-14T12:01:32.621Z,30.50
2023-02-14T12:04:19.576Z,29.37
2023-02-14T12:06:47.217Z,32.65
2023-02-14T12:09:23.196Z,33.40
2023-02-14T12:11:58.212Z,31.45
2023-02-14T12:14:29.907Z,32.65
2023-02-14T12:17:20.897Z,31.23
2023-02-14T12:19:51.963Z,30.80
2023-02-14T12:22:45.332Z,31.17
2023-02-14T12:25:17.069Z,31.43
2023-02-14T12:27:49.899Z,30.55
2023-02-14T12:30:21.571Z,31.93
2023-02-14T12:32:54.295Z,31.40
2023-02-14T12:35:44.636Z,32.72
2023-02-14T12:38:39.120Z,31.42
2023-02-14T12:41:30.544Z,30.77
2023-02-14T12:44:05.769Z,31.13
2023-02-14T12:47:08.247Z,32.08
2023-02-14T12:50:03.089Z,31.30
2023-02-14T12:52:44.207Z,30.73
2023-02-14T12:55:53.560Z,29.63
2023-02-14T12:58:39.382Z,30.95
2023-02-14T13:01:28.693Z,31.53
2023-02-14T13:04:27.616Z,32.60
2023-02-14T13:06:59.544Z,31.13
2023-02-14T13:09:37.087Z,30.97
2023-02-14T13:12:04.233Z,30.05
2023-02-14T13:14:57.820Z,31.87
2023-02-14T13:17:43.144Z,30.70
2023-02-14T13:20:27.352Z,30.45
2023-02-14T13:22:57.619Z,31.50
2023-02-14T13:25:31.639Z,31.43
2023-02-14T13:28:01.696Z,33.65
2023-02-14T13:30:42.073Z,31.77
2023-02-14T13:33:24.032Z,30.83
2023-02-14T13:35:54.854Z,33.42
2023-02-14T13:38:24.236Z,33.30
2023-02-14T13:40:52.419Z,33.78
2023-02-14T13:43:58.594Z,33.60
2023-02-14T13:46:34.590Z,30.60
2023-02-14T13:49:27.095Z,28.90
2023-02-14T13:51:57.720Z,30.52
2023-02-14T13:54:33.488Z,31.05
2023-02-14T13:57:03.276Z,32.70
2023-02-14T13:59:35.429Z,30.73
2023-02-14T14:02:29.967Z,29.52
2023-02-14T14:04:57.693Z,29.15
2023-02-14T14:07:30.781Z,31.40
2023-02-14T14:10:00.251Z,32.13
2023-02-14T14:12:27.545Z,28.30
2023-02-14T14:15:07.041Z,30.77
2023-02-14T14:18:15.552Z,30.13
2023-02-14T14:20:52.348Z,31.00
2023-02-14T14:23:34.920Z,29.92
2023-02-14T14:26:03.425Z,33.75
2023-02-14T14:28:32.678Z,29.42
2023-02-14T14:31:00.090Z,33.30
2023-02-14T14:33:32.958Z,30.30
2023-02-14T14:36:02.849Z,31.00
2023-02-14T14:38:31.718Z,30.80
2023-02-14T14:41:00.748Z,30.50
2023-02-14T14:43:27.910Z,31.35
2023-02-14T14:45:57.153Z,31.35
2023-02-14T14:48:36.071Z,32.40
2023-02-14T14:51:05.400Z,32.00
2023-02-14T14:53:44.333Z,30.48
2023-02-14T14:56:20.925Z,31.57
2023-02-14T14:58:48.593Z,32.85
2023-02-14T15:01:38.947Z,33.65
2023-02-14T15:04:25.418Z,32.58
2023-02-14T15:06:52.793Z,32.88
2023-02-14T15:09:30.528Z,32.55
2023-02-14T15:12:19.818Z,31.47
2023-02-14T15:14:54.288Z,33.20
2023-02-14T15:17:31.558Z,33.97
2023-02-14T15:20:06.928Z,36.07
2023-02-14T15:22:44.307Z,34.60
2023-02-14T15:25:17.059Z,33.17
2023-02-14T15:27:44.527Z,35.53
2023-02-14T15:30:30.867Z,34.83
2023-02-14T15:32:58.575Z,33.03
2023-02-14T15:35:28.856Z,36.35
2023-02-14T15:38:01.385Z,33.63
2023-02-14T15:40:31.713Z,33.88
2023-02-14T15:43:21.971Z,33.60
2023-02-14T15:45:52.893Z,34.33
2023-02-14T15:48:28.370Z,35.17
2023-02-14T15:50:59.174Z,34.67
2023-02-14T15:53:33.507Z,34.03
2023-02-14T15:56:24.622Z,34.60
2023-02-14T15:59:00.592Z,36.00
2023-02-14T16:01:28.930Z,35.22
2023-02-14T16:03:59.227Z,33.75
2023-02-14T16:06:30.636Z,35.05
2023-02-14T16:08:58.180Z,35.15
2023-02-14T16:11:32.013Z,36.03
2023-02-14T16:14:19.369Z,36.65
2023-02-14T16:17:06.715Z,35.40
2023-02-14T16:19:42.701Z,36.73
2023-02-14T16:22:32.233Z,35.17
2023-02-14T16:24:59.536Z,38.65
2023-02-14T16:27:27.021Z,36.17
2023-02-14T16:29:56.519Z,36.78
2023-02-14T16:32:24.500Z,34.95
2023-02-14T16:34:52.056Z,37.30
2023-02-14T16:37:33.268Z,37.88
2023-02-14T16:40:01.742Z,37.80
2023-02-14T16:42:29.256Z,39.00
2023-02-14T16:44:57.650Z,38.90
2023-02-14T16:47:27.632Z,38.50
2023-02-14T16:49:54.848Z,38.83
2023-02-14T16:52:25.330Z,40.30
2023-02-14T16:54:53.338Z,41.85
2023-02-14T16:57:37.165Z,39.35
2023-02-14T17:00:06.491Z,44.78
2023-02-14T17:02:34.685Z,41.55
2023-02-14T17:05:01.959Z,44.20
2023-02-14T17:07:32.218Z,42.33
2023-02-14T17:10:05.745Z,39.43
2023-02-14T17:12:37.716Z,42.70
2023-02-14T17:15:17.369Z,39.25
2023-02-14T17:17:46.974Z,43.50
2023-02-14T17:20:14.877Z,42.30
2023-02-14T17:22:42.618Z,41.47
2023-02-14T17:25:09.927Z,42.10
2023-02-14T17:27:37.628Z,40.03
2023-02-14T17:30:05.267Z,42.40
2023-02-14T17:32:32.439Z,43.15
2023-02-14T17:35:00.952Z,40.87
2023-02-14T17:37:31.195Z,69.10
2023-02-14T17:39:58.422Z,45.40
2023-02-14T17:42:25.660Z,43.93
2023-02-14T17:44:52.877Z,46.60
2023-02-14T17:47:20.243Z,43.75
2023-02-14T17:49:47.751Z,52.33
2023-02-14T17:52:15.719Z,47.13
2023-02-14T17:54:43.338Z,43.38
2023-02-14T17:57:12.444Z,42.73
2023-02-14T17:59:39.755Z,45.00
2023-02-14T18:02:07.101Z,45.45
2023-02-14T18:04:36.337Z,46.95
2023-02-14T18:07:06.499Z,45.95
2023-02-14T18:09:33.651Z,43.78
2023-02-14T18:12:00.852Z,45.88
2023-02-14T18:14:28.062Z,44.95
2023-02-14T18:16:55.269Z,44.47
2023-02-14T18:19:22.513Z,46.73
2023-02-14T18:21:49.789Z,46.87
2023-02-14T18:24:16.973Z,50.17
2023-02-14T18:26:44.538Z,49.20
2023-02-14T18:29:12.640Z,47.33
2023-02-14T18:31:42.023Z,46.72
2023-02-14T18:34:09.578Z,47.63
2023-02-14T18:36:38.632Z,49.27
2023-02-14T18:39:06.920Z,44.92
2023-02-14T18:41:34.478Z,50.08
2023-02-14T18:44:01.908Z,47.17
2023-02-14T18:46:35.197Z,51.47
2023-02-14T18:49:04.475Z,48.73
2023-02-14T18:51:34.265Z,50.00
2023-02-14T18:54:02.356Z,52.67
2023-02-14T18:56:32.499Z,49.85
2023-02-14T18:59:07.957Z,51.47
2023-02-14T19:01:39.433Z,51.67
2023-02-14T19:04:08.836Z,52.30
2023-02-14T19:06:36.523Z,51.15
2023-02-14T19:09:07.234Z,49.15
2023-02-14T19:11:35.491Z,49.45
2023-02-14T19:14:09.285Z,51.10
2023-02-14T19:16:41.915Z,55.57
2023-02-14T19:19:10.162Z,64.35
2023-02-14T19:21:37.450Z,52.83
2023-02-14T19:24:07.027Z,57.50
2023-02-14T19:26:39.993Z,53.30
2023-02-14T19:29:10.645Z,54.73
2023-02-14T19:31:41.233Z,54.92
2023-02-14T19:34:15.031Z,55.75
2023-02-14T19:36:42.315Z,56.87
2023-02-14T19:39:11.497Z,57.75
2023-02-14T19:41:39.832Z,56.08
2023-02-14T19:44:09.310Z,53.83
2023-02-14T19:46:38.198Z,56.97
2023-02-14T19:49:05.475Z,53.83
2023-02-14T19:51:35.953Z,61.13
2023-02-14T19:54:05.797Z,59.25
2023-02-14T19:56:36.356Z,58.22
2023-02-14T19:59:08.990Z,58.43
2023-02-14T20:01:46.297Z,53.05
2023-02-14T20:04:21.336Z,55.05
2023-02-14T20:06:49.292Z,55.20
2023-02-14T20:09:17.836Z,58.47
2023-02-14T20:11:51.003Z,52.30
2023-02-14T20:14:29.931Z,65.20
2023-02-14T20:17:00.324Z,54.00
2023-02-14T20:19:32.035Z,58.37
2023-02-14T20:21:59.840Z,61.13
2023-02-14T20:24:31.448Z,57.70
2023-02-14T20:27:00.418Z,54.67
2023-02-14T20:29:27.920Z,58.42
2023-02-14T20:32:01.382Z,56.47
2023-02-14T20:34:28.838Z,57.75
2023-02-14T20:36:56.298Z,59.25
2023-02-14T20:39:31.138Z,59.73
2023-02-14T20:41:59.367Z,58.58
2023-02-14T20:44:26.944Z,56.95
2023-02-14T20:46:55.893Z,60.08
2023-02-14T20:49:25.030Z,71.37
2023-02-14T20:51:52.770Z,58.58
2023-02-14T20:54:22.987Z,57.35
2023-02-14T20:56:50.817Z,57.47
2023-02-14T20:59:27.321Z,55.20
2023-02-14T21:01:56.545Z,59.05
2023-02-14T21:04:24.310Z,59.55
2023-02-14T21:06:51.802Z,73.27
2023-02-14T21:09:20.682Z,61.63
2023-02-14T21:11:47.954Z,60.03
2023-02-14T21:14:17.216Z,57.03
2023-02-14T21:16:44.602Z,59.45
2023-02-14T21:19:11.832Z,61.95
2023-02-14T21:21:39.277Z,74.65
2023-02-14T21:24:09.594Z,83.68
2023-02-14T21:26:37.690Z,62.15
2023-02-14T21:29:06.396Z,62.97
2023-02-14T21:31:34.681Z,59.30
2023-02-14T21:34:03.157Z,63.95
2023-02-14T21:36:35.390Z,60.08
2023-02-14T21:39:04.809Z,71.97
2023-02-14T21:41:32.249Z,70.70
2023-02-14T21:44:01.119Z,66.88
2023-02-14T21:46:33.484Z,73.50
2023-02-14T21:49:21.120Z,77.23
2023-02-14T21:51:48.551Z,77.33
2023-02-14T21:54:16.649Z,73.57
2023-02-14T21:56:44.006Z,71.75
2023-02-14T21:59:11.831Z,80.15
2023-02-14T22:01:41.195Z,79.97
2023-02-14T22:04:10.711Z,79.00
2023-02-14T22:06:39.883Z,83.30
2023-02-14T22:09:07.529Z,86.40
2023-02-14T22:11:35.227Z,89.25
2023-02-14T22:14:02.782Z,81.80
2023-02-14T22:16:30.658Z,80.15
2023-02-14T22:18:57.837Z,83.45
2023-02-14T22:21:26.504Z,91.72
2023-02-14T22:23:55.159Z,81.13
2023-02-14T22:26:26.718Z,84.28
2023-02-14T22:28:59.142Z,88.22
2023-02-14T22:31:28.751Z,89.80
2023-02-14T22:33:56.168Z,76.95
2023-02-14T22:36:23.360Z,85.93
2023-02-14T22:38:50.563Z,93.97
2023-02-14T22:41:23.848Z,87.00
2023-02-14T22:43:52.611Z,90.68
2023-02-14T22:46:28.263Z,93.22
2023-02-14T22:48:56.377Z,87.80
2023-02-14T22:51:30.619Z,84.90
2023-02-14T22:54:00.296Z,88.95
2023-02-14T22:56:34.175Z,90.85
2023-02-14T22:59:05.075Z,89.60
2023-02-14T23:01:34.227Z,94.90
2023-02-14T23:04:02.717Z,95.03
2023-02-14T23:06:32.220Z,91.88
2023-02-14T23:08:59.854Z,99.00
2023-02-14T23:11:30.574Z,89.53
2023-02-14T23:14:17.020Z,101.68
2023-02-14T23:17:03.461Z,95.97
2023-02-14T23:19:51.580Z,92.83
2023-02-14T23:22:27.503Z,90.88
2023-02-14T23:24:59.956Z,86.57
2023-02-14T23:27:36.485Z,93.13
2023-02-14T23:30:08.135Z,81.43
2023-02-14T23:32:35.584Z,88.25
2023-02-14T23:35:02.934Z,92.15
2023-02-14T23:37:30.287Z,96.93
2023-02-14T23:39:57.488Z,100.95
2023-02-14T23:42:24.720Z,87.40
2023-02-14T23:44:51.924Z,93.65
2023-02-14T23:47:19.088Z,91.80
2023-02-14T23:49:46.296Z,91.73
2023-02-14T23:52:14.107Z,102.60
2023-02-14T23:54:41.273Z,107.20
2023-02-14T23:57:09.339Z,93.83
2023-02-14T23:59:36.668Z,99.78
